Time;durP1;ratioP1;P1;durP2;ratioP2;P2;SDS_P1;SDS_P2;PMS_P1;PMS_P2;Temp;Humidity;BMP_temperature;BMP_pressure;BME280_temperature;BME280_humidity;BME280_pressure;Samples;Min_cycle;Max_cycle;Signal;HPM_P1;HPM_P2
2023/05/15 00:02:19;;;;;;;12.93;2.22;;;;;;;10.71;100.00;101129.78;4988886;28;20054;-65
2023/05/15 00:04:46;;;;;;;7.32;1.70;;;;;;;10.83;100.00;101137.19;4988972;28;20050;-65
2023/05/15 00:07:13;;;;;;;12.10;2.10;;;;;;;10.71;100.00;101126.28;4990802;28;20073;-65
2023/05/15 00:09:40;;;;;;;10.18;1.75;;;;;;;10.80;100.00;101111.13;4997364;28;20046;-65
2023/05/15 00:12:07;;;;;;;7.55;1.67;;;;;;;10.75;100.00;101118.28;4988723;28;20062;-65
2023/05/15 00:14:34;;;;;;;6.05;1.40;;;;;;;10.77;100.00;101126.94;4987472;28;20090;-65
2023/05/15 00:17:00;;;;;;;10.85;1.90;;;;;;;10.59;100.00;101127.53;4989334;28;20315;-66
2023/05/15 00:19:27;;;;;;;9.57;2.10;;;;;;;10.58;100.00;101110.94;4989635;28;20089;-65
2023/05/15 00:21:54;;;;;;;8.52;1.77;;;;;;;10.79;100.00;101119.03;4988372;28;20058;-65
2023/05/15 00:24:21;;;;;;;8.60;1.80;;;;;;;10.87;100.00;101129.25;4987830;28;20065;-65
2023/05/15 00:26:47;;;;;;;8.25;1.90;;;;;;;10.68;100.00;101127.25;4988780;28;20672;-65
2023/05/15 00:29:14;;;;;;;8.57;1.63;;;;;;;10.69;100.00;101115.00;4989140;28;20046;-65
2023/05/15 00:31:41;;;;;;;12.82;2.28;;;;;;;10.71;100.00;101126.28;4971872;28;20053;-66
2023/05/15 00:34:08;;;;;;;6.50;1.50;;;;;;;10.73;100.00;101127.06;4970088;28;20054;-65
2023/05/15 00:36:34;;;;;;;6.57;1.67;;;;;;;10.74;100.00;101127.03;4988844;28;20081;-65
2023/05/15 00:39:01;;;;;;;15.52;1.95;;;;;;;10.81;100.00;101130.31;4989560;28;20455;-67
2023/05/15 00:41:31;;;;;;;7.03;1.30;;;;;;;10.80;100.00;101131.22;4991429;28;20062;-67
2023/05/15 00:43:59;;;;;;;8.80;1.48;;;;;;;10.82;100.00;101127.66;4991964;28;20403;-67
2023/05/15 00:46:27;;;;;;;7.68;1.52;;;;;;;10.81;100.00;101136.41;4995246;28;20054;-67
2023/05/15 00:48:56;;;;;;;4.78;1.30;;;;;;;10.75;100.00;101136.63;4993295;28;20050;-67
2023/05/15 00:51:25;;;;;;;6.43;1.85;;;;;;;10.80;100.00;101116.38;4971974;28;20042;-67
2023/05/15 00:53:55;;;;;;;8.45;1.67;;;;;;;10.88;100.00;101128.38;4972631;28;20058;-67
2023/05/15 00:56:24;;;;;;;7.65;1.98;;;;;;;10.75;100.00;101122.66;4992544;28;20054;-67
2023/05/15 00:58:52;;;;;;;10.60;1.65;;;;;;;10.57;100.00;101129.31;4992922;28;20073;-68
2023/05/15 01:01:20;;;;;;;8.52;1.90;;;;;;;10.63;100.00;101132.59;4992516;28;20051;-68
2023/05/15 01:03:47;;;;;;;5.88;1.67;;;;;;;10.53;100.00;101127.72;4991732;28;20400;-67
2023/05/15 01:06:14;;;;;;;12.52;2.47;;;;;;;10.44;100.00;101132.31;4991062;28;20054;-67
2023/05/15 01:08:48;;;;;;;11.98;2.20;;;;;;;10.26;100.00;101119.78;4992714;28;20743;-68
2023/05/15 01:11:17;;;;;;;9.35;1.90;;;;;;;10.22;100.00;101134.72;4974632;28;20077;-67
2023/05/15 01:13:44;;;;;;;6.40;1.73;;;;;;;9.97;100.00;101131.97;4991384;28;20077;-67
2023/05/15 01:16:10;;;;;;;7.18;1.80;;;;;;;9.98;100.00;101120.56;4991774;28;20110;-67
2023/05/15 01:18:37;;;;;;;7.22;1.45;;;;;;;10.10;100.00;101134.22;4992052;28;20057;-67
2023/05/15 01:21:34;;;;;;;10.80;1.88;;;;;;;9.83;100.00;101128.88;4990999;28;20076;-67
2023/05/15 01:24:22;;;;;;;6.53;1.67;;;;;;;10.01;100.00;101138.81;4991515;28;20065;-67
2023/05/15 01:27:04;;;;;;;9.18;1.48;;;;;;;9.96;100.00;101138.06;4989163;28;20396;-67
2023/05/15 01:29:46;;;;;;;4.60;1.30;;;;;;;9.91;100.00;101134.72;4974981;28;20046;-68
2023/05/15 01:32:22;;;;;;;8.13;2.15;;;;;;;9.84;100.00;101121.00;4992800;28;20050;-68
2023/05/15 01:35:06;;;;;;;5.72;1.52;;;;;;;9.88;100.00;101120.00;4970238;28;20145;-67
2023/05/15 01:37:40;;;;;;;6.35;1.60;;;;;;;9.77;100.00;101127.28;4997858;28;20054;-67
2023/05/15 01:40:09;;;;;;;10.48;1.70;;;;;;;9.83;100.00;101132.34;4982338;28;20096;-67
2023/05/15 01:42:40;;;;;;;6.38;1.58;;;;;;;9.92;100.00;101135.63;4991339;28;20089;-67
2023/05/15 01:45:10;;;;;;;7.10;1.60;;;;;;;9.92;100.00;101135.63;4989740;28;20046;-67
2023/05/15 01:47:46;;;;;;;6.13;1.50;;;;;;;9.90;100.00;101117.34;4991452;28;20499;-68
2023/05/15 01:50:15;;;;;;;11.60;2.25;;;;;;;9.81;100.00;101135.88;4978390;28;20055;-67
2023/05/15 01:52:48;;;;;;;10.35;1.98;;;;;;;9.75;100.00;101121.22;4991189;28;20050;-67
2023/05/15 01:55:15;;;;;;;6.73;1.70;;;;;;;9.73;100.00;101135.25;4990671;28;20054;-68
2023/05/15 01:57:45;;;;;;;4.85;1.33;;;;;;;9.64;100.00;101133.75;4991815;28;20058;-68
2023/05/15 02:00:13;;;;;;;10.85;1.85;;;;;;;9.69;100.00;101137.09;4991252;28;20663;-68
2023/05/15 02:02:42;;;;;;;7.07;1.58;;;;;;;9.62;100.00;101125.94;4974436;28;20373;-68
2023/05/15 02:05:11;;;;;;;9.65;2.08;;;;;;;9.67;100.00;101136.28;4975582;28;20144;-68
2023/05/15 02:07:38;;;;;;;7.93;1.55;;;;;;;9.81;100.00;101126.31;4991638;28;20050;-68
2023/05/15 02:10:05;;;;;;;6.00;1.48;;;;;;;9.54;100.00;101129.66;4991654;28;20062;-68
2023/05/15 02:12:34;;;;;;;6.07;1.38;;;;;;;9.54;100.00;101127.06;4990931;28;20058;-68
2023/05/15 02:15:03;;;;;;;4.25;1.42;;;;;;;9.50;100.00;101123.66;4989212;28;20057;-68
2023/05/15 02:17:30;;;;;;;4.95;1.30;;;;;;;9.68;100.00;101143.22;4991634;28;20749;-67
2023/05/15 02:19:58;;;;;;;8.38;1.45;;;;;;;9.73;100.00;101143.09;4991001;28;20050;-67
2023/05/15 02:22:26;;;;;;;6.07;1.60;;;;;;;9.79;100.00;101142.91;4974885;28;20389;-67
2023/05/15 02:24:52;;;;;;;8.48;1.20;;;;;;;9.79;100.00;101154.25;4989038;28;20050;-68
2023/05/15 02:27:45;;;;;;;7.03;1.90;;;;;;;9.60;100.00;101155.66;4989452;28;20054;-68
2023/05/15 02:30:20;;;;;;;3.50;1.23;;;;;;;9.53;100.00;101151.50;4990298;28;20086;-68
2023/05/15 02:32:59;;;;;;;5.70;1.50;;;;;;;9.60;100.00;101153.06;4976551;28;20056;-68
2023/05/15 02:35:38;;;;;;;8.00;1.52;;;;;;;9.48;100.00;101162.06;4986777;28;20057;-67
2023/05/15 02:38:14;;;;;;;4.30;1.17;;;;;;;9.53;100.00;101157.56;4971052;28;20055;-67
2023/05/15 02:40:44;;;;;;;4.97;1.35;;;;;;;9.36;100.00;101155.38;4989388;28;20384;-67
2023/05/15 02:43:13;;;;;;;5.55;1.40;;;;;;;9.25;100.00;101145.22;4995579;28;20497;-69
2023/05/15 02:45:40;;;;;;;3.47;1.10;;;;;;;9.35;100.00;101158.03;4990825;28;20050;-67
2023/05/15 02:48:08;;;;;;;6.10;1.70;;;;;;;9.19;100.00;101160.19;4990645;28;20050;-68
2023/05/15 02:50:35;;;;;;;7.75;1.45;;;;;;;9.29;100.00;101157.28;4990049;28;20088;-68
2023/05/15 02:53:06;;;;;;;5.78;1.70;;;;;;;9.21;100.00;101163.63;4991665;28;20054;-68
2023/05/15 02:55:33;;;;;;;6.90;1.65;;;;;;;9.09;100.00;101167.41;4989503;28;20054;-68
2023/05/15 02:58:02;;;;;;;6.05;1.27;;;;;;;9.02;100.00;101173.69;4990512;28;20069;-67
2023/05/15 03:00:29;;;;;;;5.78;1.70;;;;;;;8.88;100.00;101156.56;4989471;28;20368;-67
2023/05/15 03:02:55;;;;;;;9.48;1.42;;;;;;;8.91;100.00;101164.34;4988493;28;20046;-68
2023/05/15 03:05:22;;;;;;;9.00;1.70;;;;;;;8.98;100.00;101165.06;4988539;28;20050;-68
2023/05/15 03:07:49;;;;;;;5.70;1.50;;;;;;;8.76;100.00;101153.41;4990788;28;20179;-67
2023/05/15 03:10:16;;;;;;;8.40;1.60;;;;;;;8.80;100.00;101173.31;4990361;28;20096;-68
2023/05/15 03:12:43;;;;;;;8.05;1.40;;;;;;;8.80;100.00;101166.34;4989529;28;20526;-67
2023/05/15 03:15:09;;;;;;;8.13;1.50;;;;;;;8.49;100.00;101177.47;4989343;28;20058;-68
2023/05/15 03:17:36;;;;;;;7.38;1.75;;;;;;;8.61;100.00;101172.91;4990601;28;20072;-68
2023/05/15 03:20:03;;;;;;;3.97;1.25;;;;;;;8.74;100.00;101169.09;4988688;28;20070;-68
2023/05/15 03:22:30;;;;;;;3.88;1.20;;;;;;;8.62;100.00;101175.44;4984446;28;20054;-68
2023/05/15 03:24:57;;;;;;;8.98;1.58;;;;;;;8.62;100.00;101174.59;4987555;28;20061;-68
2023/05/15 03:27:24;;;;;;;5.78;1.45;;;;;;;8.66;100.00;101182.34;4980646;28;20051;-68
2023/05/15 03:29:51;;;;;;;7.82;1.48;;;;;;;8.61;100.00;101178.97;4992067;28;20134;-68
2023/05/15 03:32:17;;;;;;;4.82;1.40;;;;;;;8.59;100.00;101179.88;4990581;28;20097;-68
2023/05/15 03:34:44;;;;;;;7.53;1.60;;;;;;;8.52;100.00;101187.84;4988994;28;20073;-67
2023/05/15 03:37:11;;;;;;;7.28;1.40;;;;;;;8.67;100.00;101184.03;4990481;28;20499;-67
2023/05/15 03:39:38;;;;;;;5.93;1.40;;;;;;;8.68;100.00;101183.16;4986322;28;20046;-67
2023/05/15 03:42:05;;;;;;;6.35;1.10;;;;;;;8.74;100.00;101180.38;4988109;28;20116;-68
2023/05/15 03:44:32;;;;;;;3.05;1.17;;;;;;;8.72;100.00;101186.53;4988401;28;20117;-67
2023/05/15 03:46:58;;;;;;;5.95;1.25;;;;;;;8.39;100.00;101146.38;4990247;28;20057;-67
2023/05/15 03:49:25;;;;;;;5.70;1.17;;;;;;;8.49;100.00;101164.41;4990183;28;20042;-68
2023/05/15 03:51:52;;;;;;;4.90;1.30;;;;;;;8.68;100.00;101184.91;4990230;28;20046;-67
2023/05/15 03:54:19;;;;;;;4.60;1.25;;;;;;;8.74;100.00;101183.00;4989086;28;20050;-67
2023/05/15 03:56:46;;;;;;;6.35;1.30;;;;;;;8.45;100.00;101162.78;4989310;28;20101;-67
2023/05/15 03:59:13;;;;;;;8.57;1.33;;;;;;;8.41;100.00;101168.94;4989531;28;20480;-67
2023/05/15 04:01:40;;;;;;;7.32;1.42;;;;;;;8.39;100.00;101178.53;4989961;28;20122;-68
2023/05/15 04:04:26;;;;;;;5.40;1.65;;;;;;;8.48;100.00;101181.00;4987315;28;20130;-68
2023/05/15 04:06:54;;;;;;;6.80;1.20;;;;;;;8.43;100.00;101167.19;4989626;28;20049;-68
2023/05/15 04:09:22;;;;;;;6.22;1.30;;;;;;;8.49;100.00;101169.66;4974586;28;20054;-68
2023/05/15 04:11:49;;;;;;;5.47;1.40;;;;;;;8.43;100.00;101180.22;4988677;28;20047;-68
2023/05/15 04:14:16;;;;;;;7.85;1.33;;;;;;;8.33;100.00;101168.22;4988534;28;20515;-68
2023/05/15 04:16:42;;;;;;;3.60;1.08;;;;;;;8.44;100.00;101176.72;4993202;28;20054;-68
2023/05/15 04:19:09;;;;;;;7.05;1.35;;;;;;;8.50;100.00;101167.91;4993293;28;20082;-68
2023/05/15 04:21:36;;;;;;;5.28;1.17;;;;;;;8.47;100.00;101178.41;4993335;28;20053;-68
2023/05/15 04:24:03;;;;;;;5.22;1.35;;;;;;;8.27;100.00;101181.38;4992089;28;20050;-68
2023/05/15 04:26:30;;;;;;;10.25;1.65;;;;;;;8.36;100.00;101176.00;4992285;28;20058;-68
2023/05/15 04:28:57;;;;;;;4.78;1.23;;;;;;;8.57;100.00;101189.50;4993441;28;20476;-68
2023/05/15 04:31:30;;;;;;;2.95;1.10;;;;;;;8.82;100.00;101193.28;4982001;28;20053;-68
2023/05/15 04:33:57;;;;;;;4.68;1.10;;;;;;;9.47;100.00;101189.97;4991331;28;20046;-68
2023/05/15 04:36:24;;;;;;;4.85;1.45;;;;;;;9.81;100.00;101188.19;4993899;28;20551;-67
2023/05/15 04:38:51;;;;;;;7.15;1.33;;;;;;;9.50;100.00;101173.34;4993446;28;20469;-68
2023/05/15 04:41:17;;;;;;;3.35;1.20;;;;;;;9.27;100.00;101187.00;4992280;28;20472;-67
2023/05/15 04:43:45;;;;;;;4.22;1.33;;;;;;;9.13;100.00;101193.41;4991841;28;20132;-67
2023/05/15 04:46:11;;;;;;;6.57;1.42;;;;;;;9.08;100.00;101192.69;4992690;28;20050;-67
2023/05/15 04:48:38;;;;;;;5.50;1.25;;;;;;;9.04;100.00;101187.56;4994871;28;20159;-68
2023/05/15 04:51:06;;;;;;;5.13;1.33;;;;;;;8.92;100.00;101188.69;4993162;28;20534;-68
2023/05/15 04:53:33;;;;;;;7.60;1.17;;;;;;;8.89;100.00;101184.41;4992243;28;20491;-68
2023/05/15 04:55:59;;;;;;;4.00;1.20;;;;;;;8.90;100.00;101178.28;4991848;28;20050;-67
2023/05/15 04:58:26;;;;;;;4.80;1.10;;;;;;;9.04;100.00;101193.63;4993287;28;20054;-67
2023/05/15 05:00:53;;;;;;;5.47;1.33;;;;;;;8.98;100.00;101201.63;4992985;28;20042;-67
2023/05/15 05:03:20;;;;;;;8.07;1.05;;;;;;;8.94;100.00;101199.94;4993020;28;20061;-67
2023/05/15 05:05:46;;;;;;;3.42;1.10;;;;;;;8.80;100.00;101194.19;4991460;28;20644;-68
2023/05/15 05:08:13;;;;;;;5.32;1.40;;;;;;;8.84;100.00;101214.16;4981968;28;20057;-68
2023/05/15 05:10:40;;;;;;;6.88;1.30;;;;;;;8.88;100.00;101213.16;4992269;28;20484;-68
2023/05/15 05:13:06;;;;;;;6.10;1.40;;;;;;;8.85;100.00;101201.06;4991885;28;20050;-68
2023/05/15 05:15:33;;;;;;;7.15;1.50;;;;;;;8.74;100.00;101209.09;4973492;28;20081;-68
2023/05/15 05:18:00;;;;;;;3.92;1.20;;;;;;;8.94;100.00;101215.63;4991498;28;20153;-67
2023/05/15 05:20:27;;;;;;;4.25;1.30;;;;;;;8.90;100.00;101206.16;4971055;28;20073;-67
2023/05/15 05:22:54;;;;;;;5.07;1.30;;;;;;;8.80;100.00;101218.56;4990022;28;20054;-67
2023/05/15 05:25:21;;;;;;;4.57;1.58;;;;;;;8.80;100.00;101215.09;4988739;28;20062;-67
2023/05/15 05:27:48;;;;;;;5.35;1.40;;;;;;;8.95;100.00;101219.97;4991364;28;20125;-67
2023/05/15 05:30:15;;;;;;;6.28;1.50;;;;;;;9.12;100.00;101216.97;4989605;28;20046;-67
2023/05/15 05:32:42;;;;;;;8.82;1.60;;;;;;;9.13;100.00;101216.91;4969275;28;20068;-67
2023/05/15 05:35:08;;;;;;;6.05;1.30;;;;;;;9.17;100.00;101216.84;4979071;28;20109;-67
2023/05/15 05:37:35;;;;;;;5.20;1.30;;;;;;;9.17;100.00;101216.84;4982566;28;20555;-68
2023/05/15 05:40:05;;;;;;;7.30;1.73;;;;;;;9.11;100.00;101218.69;4978663;28;20042;-68
2023/05/15 05:42:32;;;;;;;9.35;1.67;;;;;;;9.20;100.00;101222.84;4984652;28;20058;-67
2023/05/15 05:44:59;;;;;;;5.75;1.20;;;;;;;9.27;100.00;101224.41;4984487;28;20054;-68
2023/05/15 05:47:25;;;;;;;6.60;1.50;;;;;;;9.26;100.00;101225.34;4989301;28;20042;-67
2023/05/15 05:49:53;;;;;;;6.45;1.83;;;;;;;9.17;100.00;101225.56;4991260;28;20058;-67
2023/05/15 05:52:21;;;;;;;4.68;1.33;;;;;;;9.41;100.00;101228.47;4991235;28;20387;-67
2023/05/15 05:54:47;;;;;;;4.53;1.48;;;;;;;9.29;100.00;101233.06;4980726;28;20042;-68
2023/05/15 05:57:14;;;;;;;8.75;2.00;;;;;;;9.33;100.00;101220.81;4977240;28;20145;-68
2023/05/15 05:59:41;;;;;;;7.65;1.50;;;;;;;9.57;100.00;101232.41;4980076;28;20050;-67
2023/05/15 06:02:08;;;;;;;7.22;1.52;;;;;;;10.54;100.00;101227.16;4981122;28;20050;-67
2023/05/15 06:04:35;;;;;;;5.57;1.40;;;;;;;10.86;100.00;101241.06;4989896;28;20042;-68
2023/05/15 06:07:02;;;;;;;8.73;2.00;;;;;;;11.35;100.00;101236.88;4991787;28;20520;-68
2023/05/15 06:09:29;;;;;;;8.43;1.85;;;;;;;12.04;100.00;101232.81;4982729;28;20058;-67
2023/05/15 06:11:56;;;;;;;6.00;1.70;;;;;;;12.32;100.00;101230.03;4981851;28;20480;-67
2023/05/15 06:14:23;;;;;;;11.88;1.60;;;;;;;12.66;100.00;101208.63;4980719;28;20061;-68
2023/05/15 06:16:50;;;;;;;5.75;1.40;;;;;;;13.20;100.00;101242.44;4979261;28;20053;-68
2023/05/15 06:19:16;;;;;;;6.20;1.38;;;;;;;13.36;100.00;101240.91;4979644;28;20506;-67
2023/05/15 06:21:43;;;;;;;11.48;1.40;;;;;;;12.66;100.00;101244.53;4985563;28;20046;-68
2023/05/15 06:24:10;;;;;;;9.38;1.33;;;;;;;13.45;100.00;101248.41;4987990;28;20054;-67
2023/05/15 06:26:36;;;;;;;7.47;1.55;;;;;;;13.04;100.00;101247.44;4990191;28;20815;-67
2023/05/15 06:29:03;;;;;;;7.25;1.40;;;;;;;13.32;100.00;101249.00;4990656;28;20054;-67
2023/05/15 06:31:30;;;;;;;8.57;1.63;;;;;;;13.07;100.00;101248.19;4987939;28;20500;-67
2023/05/15 06:33:56;;;;;;;8.15;1.50;;;;;;;13.32;100.00;101252.50;4989695;28;20090;-67
2023/05/15 06:36:23;;;;;;;6.28;1.42;;;;;;;13.63;100.00;101253.84;4991923;28;20058;-68
2023/05/15 06:38:50;;;;;;;8.18;1.52;;;;;;;14.10;100.00;101253.56;4989996;28;20042;-68
2023/05/15 06:41:17;;;;;;;7.68;1.20;;;;;;;14.34;100.00;101254.28;4990119;28;20050;-68
2023/05/15 06:43:43;;;;;;;7.35;1.75;;;;;;;14.40;100.00;101253.97;4989414;28;20470;-68
2023/05/15 06:46:10;;;;;;;6.47;1.15;;;;;;;14.87;100.00;101257.16;4989956;28;20078;-68
2023/05/15 06:48:37;;;;;;;7.25;1.23;;;;;;;14.77;100.00;101268.13;4991147;28;20054;-68
2023/05/15 06:51:03;;;;;;;5.90;1.30;;;;;;;14.99;100.00;101269.75;4991317;28;20049;-68
2023/05/15 06:53:30;;;;;;;5.80;1.50;;;;;;;14.95;100.00;101265.56;4990586;28;20058;-68
2023/05/15 06:55:57;;;;;;;6.75;1.20;;;;;;;14.52;100.00;101239.41;4990600;28;20053;-68
2023/05/15 06:58:24;;;;;;;5.72;1.20;;;;;;;14.21;100.00;101268.91;4991499;28;20049;-68
2023/05/15 07:00:51;;;;;;;8.30;1.40;;;;;;;14.83;100.00;101274.03;4990603;28;20124;-68
2023/05/15 07:03:20;;;;;;;7.63;1.40;;;;;;;15.58;100.00;101267.75;4991000;28;20112;-68
2023/05/15 07:05:47;;;;;;;6.95;1.40;;;;;;;14.44;100.00;101270.50;4973513;28;20042;-68
2023/05/15 07:08:14;;;;;;;9.02;1.60;;;;;;;14.55;100.00;101257.69;4991848;28;20054;-68
2023/05/15 07:10:41;;;;;;;5.25;1.20;;;;;;;14.95;100.00;101249.75;4991369;28;20542;-68
2023/05/15 07:13:07;;;;;;;5.38;1.20;;;;;;;15.59;100.00;101258.91;4990683;28;20086;-69
2023/05/15 07:15:34;;;;;;;7.85;1.88;;;;;;;15.96;100.00;101272.91;4989962;28;20054;-68
2023/05/15 07:18:01;;;;;;;6.65;1.38;;;;;;;15.66;100.00;101267.38;4991500;28;20057;-68
2023/05/15 07:20:28;;;;;;;5.35;1.00;;;;;;;15.87;100.00;101252.28;4991719;28;20055;-68
2023/05/15 07:22:58;;;;;;;6.47;1.52;;;;;;;15.90;100.00;101271.44;4991478;28;20042;-68
2023/05/15 07:25:25;;;;;;;6.63;1.27;;;;;;;15.88;100.00;101260.13;4989101;28;20112;-68
2023/05/15 07:27:52;;;;;;;4.45;1.20;;;;;;;16.06;100.00;101273.28;4990220;28;20731;-68
2023/05/15 07:30:19;;;;;;;4.95;1.23;;;;;;;16.58;100.00;101267.88;4987485;28;20055;-68
2023/05/15 07:32:46;;;;;;;9.10;1.45;;;;;;;16.26;100.00;101264.31;4979798;28;20050;-68
2023/05/15 07:35:13;;;;;;;7.22;1.35;;;;;;;16.20;100.00;101267.28;4990217;28;20054;-68
2023/05/15 07:37:40;;;;;;;3.85;1.20;;;;;;;16.47;100.00;101252.59;4990723;28;20046;-68
2023/05/15 07:40:07;;;;;;;7.82;1.40;;;;;;;16.31;100.00;101259.66;4992726;28;20112;-68
2023/05/15 07:42:34;;;;;;;7.38;1.67;;;;;;;15.44;100.00;101264.94;4989870;28;20065;-68
2023/05/15 07:45:00;;;;;;;9.32;1.50;;;;;;;15.90;100.00;101265.28;4990012;28;20388;-68
2023/05/15 07:47:27;;;;;;;5.50;1.23;;;;;;;15.73;100.00;101266.16;4991294;28;20510;-68
2023/05/15 07:49:54;;;;;;;8.45;1.20;;;;;;;15.47;100.00;101268.28;4989407;28;20456;-68
2023/05/15 07:52:21;;;;;;;6.97;1.50;;;;;;;15.17;100.00;101270.66;4990110;28;20477;-68
2023/05/15 07:54:48;;;;;;;6.72;1.50;;;;;;;15.27;100.00;101271.91;4989907;28;20053;-68
2023/05/15 07:57:14;;;;;;;5.53;1.30;;;;;;;15.51;100.00;101266.34;4990902;28;20054;-68
2023/05/15 07:59:41;;;;;;;10.35;1.30;;;;;;;14.77;100.00;101243.56;4993464;28;20057;-68
2023/05/15 08:02:08;;;;;;;3.85;1.30;;;;;;;15.50;100.00;101268.13;4991206;28;20050;-68
2023/05/15 08:04:35;;;;;;;5.18;1.10;;;;;;;16.26;100.00;101275.75;4989410;28;20050;-68
2023/05/15 08:07:02;;;;;;;6.57;1.60;;;;;;;16.08;100.00;101276.72;4988779;28;20054;-68
2023/05/15 08:09:28;;;;;;;7.03;1.40;;;;;;;16.10;100.00;101286.25;4990031;28;20054;-68
2023/05/15 08:11:56;;;;;;;6.13;1.40;;;;;;;15.46;100.00;101290.34;4990614;28;20125;-68
2023/05/15 08:14:22;;;;;;;6.53;1.50;;;;;;;15.80;100.00;101285.19;4989205;28;20050;-68
2023/05/15 08:16:50;;;;;;;5.38;1.10;;;;;;;16.23;100.00;101282.97;4982063;28;20134;-68
2023/05/15 08:19:18;;;;;;;5.75;1.20;;;;;;;16.49;100.00;101263.09;4984602;28;20108;-69
2023/05/15 08:21:44;;;;;;;6.53;1.40;;;;;;;16.06;100.00;101284.72;4985732;28;20078;-68
2023/05/15 08:24:11;;;;;;;5.35;1.20;;;;;;;16.61;100.00;101277.41;4988961;28;20054;-68
2023/05/15 08:26:38;;;;;;;10.02;1.30;;;;;;;16.51;100.00;101293.78;4989160;28;20050;-69
2023/05/15 08:29:04;;;;;;;5.60;1.15;;;;;;;16.36;100.00;101294.63;4971342;28;20054;-68
2023/05/15 08:31:31;;;;;;;9.82;1.60;;;;;;;15.94;100.00;101301.19;4988932;28;20109;-68
2023/05/15 08:33:58;;;;;;;6.85;1.20;;;;;;;16.31;100.00;101281.63;4988245;28;20596;-68
2023/05/15 08:36:25;;;;;;;6.30;1.20;;;;;;;15.87;100.00;101295.38;4989036;28;20058;-67
2023/05/15 08:38:51;;;;;;;3.78;1.00;;;;;;;15.69;100.00;101297.13;4989678;28;20078;-67
2023/05/15 08:41:45;;;;;;;5.97;1.30;;;;;;;16.14;100.00;101290.44;4989058;28;20437;-68
2023/05/15 08:44:12;;;;;;;5.22;1.20;;;;;;;15.45;100.00;101304.47;4986939;28;20053;-68
2023/05/15 08:46:39;;;;;;;6.43;1.02;;;;;;;15.97;100.00;101305.44;4997547;28;20046;-68
2023/05/15 08:49:36;;;;;;;5.03;1.10;;;;;;;15.43;100.00;101293.13;4990656;28;20074;-68
2023/05/15 08:52:03;;;;;;;6.15;1.30;;;;;;;15.24;100.00;101301.06;4989078;28;20566;-68
2023/05/15 08:54:30;;;;;;;6.47;1.10;;;;;;;15.51;100.00;101301.53;4987946;28;20054;-68
2023/05/15 08:56:59;;;;;;;7.90;1.30;;;;;;;15.45;100.00;101303.63;4987864;28;20086;-68
2023/05/15 08:59:25;;;;;;;5.93;1.30;;;;;;;15.31;100.00;101313.03;4990798;28;20053;-68
2023/05/15 09:01:53;;;;;;;6.18;1.25;;;;;;;15.02;100.00;101310.97;4990331;28;20053;-68
2023/05/15 09:04:20;;;;;;;7.70;1.30;;;;;;;14.31;100.00;101314.13;4991455;28;20138;-68
2023/05/15 09:06:47;;;;;;;5.65;1.10;;;;;;;14.22;100.00;101310.13;4991930;28;20046;-68
2023/05/15 09:09:16;;;;;;;5.43;1.20;;;;;;;13.98;100.00;101306.75;4991737;28;20057;-68
2023/05/15 09:11:44;;;;;;;3.65;1.05;;;;;;;14.57;100.00;101298.03;4992039;28;20783;-68
2023/05/15 09:14:11;;;;;;;6.35;1.77;;;;;;;14.80;100.00;101317.22;4990985;28;20058;-69
2023/05/15 09:16:38;;;;;;;5.55;1.20;;;;;;;14.41;100.00;101321.56;4992771;28;20050;-68
2023/05/15 09:19:06;;;;;;;5.43;1.30;;;;;;;14.68;100.00;101326.56;4992837;28;20097;-68
2023/05/15 09:21:33;;;;;;;5.97;1.23;;;;;;;14.28;100.00;101319.53;4970753;28;20509;-69
2023/05/15 09:24:22;;;;;;;4.25;1.17;;;;;;;14.36;100.00;101304.22;4982647;28;20046;-68
2023/05/15 09:27:03;;;;;;;3.88;1.08;;;;;;;14.22;100.00;101310.13;4985613;28;20496;-68
2023/05/15 09:29:31;;;;;;;4.25;1.00;;;;;;;14.57;100.00;101318.22;4991455;28;20058;-69
2023/05/15 09:32:05;;;;;;;4.38;1.33;;;;;;;14.79;100.00;101312.88;4986094;28;20098;-68
2023/05/15 09:34:35;;;;;;;2.83;0.85;;;;;;;14.64;100.00;101324.13;4991129;28;20050;-68
2023/05/15 09:37:04;;;;;;;3.45;1.00;;;;;;;14.24;100.00;101326.72;4992551;28;20066;-68
2023/05/15 09:39:31;;;;;;;12.27;1.33;;;;;;;14.15;100.00;101322.69;4991985;28;20113;-68
2023/05/15 09:42:08;;;;;;;2.10;0.98;;;;;;;13.94;100.00;101329.72;4989608;28;20047;-68
2023/05/15 09:44:40;;;;;;;2.90;0.82;;;;;;;14.27;100.00;101330.97;4990871;28;20050;-69
2023/05/15 09:47:09;;;;;;;4.18;1.02;;;;;;;14.35;100.00;101329.72;4982379;28;20746;-68
2023/05/15 09:49:36;;;;;;;6.68;1.02;;;;;;;14.02;100.00;101324.13;4985263;28;20050;-68
2023/05/15 09:52:07;;;;;;;4.57;1.25;;;;;;;14.15;100.00;101322.69;4988796;28;20042;-68
2023/05/15 09:54:36;;;;;;;6.13;1.55;;;;;;;14.48;100.00;101327.41;4990699;28;20490;-68
2023/05/15 09:57:10;;;;;;;4.32;1.10;;;;;;;14.86;100.00;101324.84;4990677;28;20492;-68
2023/05/15 09:59:45;;;;;;;3.92;1.20;;;;;;;14.95;100.00;101319.13;4987921;28;20480;-68
2023/05/15 10:02:34;;;;;;;5.35;1.30;;;;;;;14.95;100.00;101327.06;4991168;28;20089;-68
2023/05/15 10:05:01;;;;;;;4.78;1.17;;;;;;;14.63;100.00;101325.91;4984142;28;20050;-68
2023/05/15 10:07:30;;;;;;;4.85;0.90;;;;;;;14.90;100.00;101320.28;4990699;28;20061;-68
2023/05/15 10:09:58;;;;;;;5.07;1.10;;;;;;;14.92;100.00;101332.47;4990868;28;20053;-68
2023/05/15 10:12:25;;;;;;;5.35;1.23;;;;;;;15.39;100.00;101320.59;4972756;28;20054;-68
2023/05/15 10:14:56;;;;;;;4.43;1.23;;;;;;;15.09;100.00;101318.50;4990067;28;20455;-68
2023/05/15 10:17:23;;;;;;;4.20;1.10;;;;;;;14.93;100.00;101331.53;4990087;28;20056;-68
2023/05/15 10:19:50;;;;;;;4.72;1.13;;;;;;;14.05;100.00;101329.28;4991420;28;20050;-68
2023/05/15 10:22:28;;;;;;;7.20;1.83;;;;;;;13.92;100.00;101331.59;4990850;28;20038;-68
2023/05/15 10:25:25;;;;;;;4.55;1.02;;;;;;;14.08;100.00;101341.44;4990456;28;20062;-68
2023/05/15 10:27:53;;;;;;;5.68;0.93;;;;;;;14.04;100.00;101332.81;4990424;28;20054;-68
2023/05/15 10:30:21;;;;;;;3.05;0.90;;;;;;;14.57;100.00;101334.91;4988641;28;20054;-68
2023/05/15 10:32:48;;;;;;;4.35;0.98;;;;;;;15.04;100.00;101330.19;4979930;28;20042;-70
2023/05/15 10:35:16;;;;;;;2.80;0.90;;;;;;;15.30;100.00;101311.34;4989959;28;20050;-68
2023/05/15 10:37:45;;;;;;;6.22;0.90;;;;;;;15.08;100.00;101343.16;4990669;28;20057;-68
2023/05/15 10:40:16;;;;;;;6.32;1.00;;;;;;;15.44;100.00;101342.34;4991085;28;20054;-68
2023/05/15 10:42:45;;;;;;;3.13;0.90;;;;;;;15.84;100.00;101353.59;4989349;28;20128;-68
2023/05/15 10:45:13;;;;;;;5.50;1.05;;;;;;;15.26;100.00;101346.69;4989859;28;20100;-69
2023/05/15 10:47:41;;;;;;;2.58;0.88;;;;;;;14.95;100.00;101347.31;4989547;28;20054;-68
2023/05/15 10:50:10;;;;;;;3.78;0.90;;;;;;;14.64;100.00;101348.69;4990475;28;20050;-68
2023/05/15 10:52:38;;;;;;;2.75;0.88;;;;;;;14.66;100.00;101354.75;4999819;28;20054;-68
2023/05/15 10:55:06;;;;;;;1.90;0.80;;;;;;;14.53;100.00;101358.81;4989286;28;20058;-68
2023/05/15 10:57:34;;;;;;;4.57;0.98;;;;;;;14.66;100.00;101354.75;4989715;28;20053;-68
2023/05/15 11:00:04;;;;;;;4.38;1.00;;;;;;;15.09;100.00;101351.94;4989865;28;20050;-68
2023/05/15 11:02:37;;;;;;;3.97;1.00;;;;;;;14.31;100.00;101364.19;4993402;28;20054;-68
2023/05/15 11:05:05;;;;;;;3.58;1.05;;;;;;;13.98;100.00;101352.38;4988559;28;20078;-68
2023/05/15 11:07:32;;;;;;;8.30;1.80;;;;;;;14.22;100.00;101365.44;4989927;28;20069;-68
2023/05/15 11:09:59;;;;;;;6.60;1.35;;;;;;;14.34;100.00;101357.00;4989766;28;20046;-68
2023/05/15 11:12:58;;;;;;;5.22;1.00;;;;;;;14.76;100.00;101356.03;4988697;28;20046;-68
2023/05/15 11:15:25;;;;;;;5.65;1.10;;;;;;;14.89;100.00;101332.63;4988485;28;20050;-68
2023/05/15 11:18:02;;;;;;;4.40;1.10;;;;;;;15.65;100.00;101337.81;4972913;28;20069;-68
2023/05/15 11:20:38;;;;;;;5.65;1.10;;;;;;;15.97;100.00;101353.00;4990653;28;20054;-68
2023/05/15 11:23:05;;;;;;;5.30;1.27;;;;;;;15.39;98.89;101349.63;4991647;28;20049;-69
2023/05/15 11:25:34;;;;;;;4.25;0.90;;;;;;;15.06;100.00;101346.81;4989519;28;20054;-71
2023/05/15 11:28:03;;;;;;;7.10;1.20;;;;;;;15.14;100.00;101348.16;4990264;28;20054;-68